sensor_id;sensor_type;location;lat;lon;timestamp;P1;durP1;ratioP1;P2;durP2;ratioP2
21128;SDS011;10722;51.910;8.352;2023-07-31T00:00:26;12.05;;;4.07;;
21128;SDS011;10722;51.910;8.352;2023-07-31T00:03:11;9.38;;;4.15;;
21128;SDS011;10722;51.910;8.352;2023-07-31T00:05:57;9.48;;;3.70;;
21128;SDS011;10722;51.910;8.352;2023-07-31T00:08:42;9.68;;;3.72;;
21128;SDS011;10722;51.910;8.352;2023-07-31T00:11:27;11.93;;;4.22;;
21128;SDS011;10722;51.910;8.352;2023-07-31T00:14:12;9.75;;;4.10;;
21128;SDS011;10722;51.910;8.352;2023-07-31T00:16:57;9.98;;;4.25;;
21128;SDS011;10722;51.910;8.352;2023-07-31T00:19:42;10.63;;;4.10;;
21128;SDS011;10722;51.910;8.352;2023-07-31T00:22:27;10.80;;;4.03;;
21128;SDS011;10722;51.910;8.352;2023-07-31T00:25:12;10.45;;;4.28;;
21128;SDS011;10722;51.910;8.352;2023-07-31T00:27:58;8.77;;;3.60;;
21128;SDS011;10722;51.910;8.352;2023-07-31T00:30:43;9.68;;;4.10;;
21128;SDS011;10722;51.910;8.352;2023-07-31T00:33:30;13.98;;;4.47;;
21128;SDS011;10722;51.910;8.352;2023-07-31T00:36:16;10.50;;;4.15;;
21128;SDS011;10722;51.910;8.352;2023-07-31T00:39:01;12.20;;;4.53;;
21128;SDS011;10722;51.910;8.352;2023-07-31T00:41:45;12.20;;;4.57;;
21128;SDS011;10722;51.910;8.352;2023-07-31T00:44:30;12.88;;;4.88;;
21128;SDS011;10722;51.910;8.352;2023-07-31T00:47:15;11.25;;;4.50;;
21128;SDS011;10722;51.910;8.352;2023-07-31T00:50:00;10.30;;;4.45;;
21128;SDS011;10722;51.910;8.352;2023-07-31T00:52:45;11.98;;;4.53;;
21128;SDS011;10722;51.910;8.352;2023-07-31T00:55:30;10.30;;;4.00;;
21128;SDS011;10722;51.910;8.352;2023-07-31T00:58:16;9.13;;;3.25;;
21128;SDS011;10722;51.910;8.352;2023-07-31T01:01:01;9.40;;;3.20;;
21128;SDS011;10722;51.910;8.352;2023-07-31T01:03:46;8.00;;;3.00;;
21128;SDS011;10722;51.910;8.352;2023-07-31T01:12:32;7.95;;;2.60;;
21128;SDS011;10722;51.910;8.352;2023-07-31T01:15:19;8.95;;;3.28;;
21128;SDS011;10722;51.910;8.352;2023-07-31T01:18:05;8.52;;;3.00;;
21128;SDS011;10722;51.910;8.352;2023-07-31T01:20:54;9.57;;;3.30;;
21128;SDS011;10722;51.910;8.352;2023-07-31T01:23:56;10.10;;;3.58;;
21128;SDS011;10722;51.910;8.352;2023-07-31T01:30:03;12.65;;;4.00;;
21128;SDS011;10722;51.910;8.352;2023-07-31T01:32:52;11.60;;;3.67;;
21128;SDS011;10722;51.910;8.352;2023-07-31T01:35:39;10.60;;;3.50;;
21128;SDS011;10722;51.910;8.352;2023-07-31T01:38:25;11.18;;;3.40;;
21128;SDS011;10722;51.910;8.352;2023-07-31T01:41:10;11.32;;;3.50;;
21128;SDS011;10722;51.910;8.352;2023-07-31T01:43:56;11.18;;;3.35;;
21128;SDS011;10722;51.910;8.352;2023-07-31T01:46:41;10.00;;;3.20;;
21128;SDS011;10722;51.910;8.352;2023-07-31T01:49:27;9.02;;;3.05;;
21128;SDS011;10722;51.910;8.352;2023-07-31T01:52:12;9.65;;;3.05;;
21128;SDS011;10722;51.910;8.352;2023-07-31T01:54:57;7.90;;;2.97;;
21128;SDS011;10722;51.910;8.352;2023-07-31T01:57:42;10.40;;;3.25;;
21128;SDS011;10722;51.910;8.352;2023-07-31T02:00:27;10.93;;;3.40;;
21128;SDS011;10722;51.910;8.352;2023-07-31T02:03:12;7.53;;;3.00;;
21128;SDS011;10722;51.910;8.352;2023-07-31T02:05:58;9.35;;;3.03;;
21128;SDS011;10722;51.910;8.352;2023-07-31T02:08:43;8.93;;;3.35;;
21128;SDS011;10722;51.910;8.352;2023-07-31T02:11:28;9.38;;;3.33;;
21128;SDS011;10722;51.910;8.352;2023-07-31T02:14:13;12.75;;;3.65;;
21128;SDS011;10722;51.910;8.352;2023-07-31T02:16:58;9.63;;;3.67;;
21128;SDS011;10722;51.910;8.352;2023-07-31T02:19:43;10.20;;;3.60;;
21128;SDS011;10722;51.910;8.352;2023-07-31T02:22:28;9.40;;;3.58;;
21128;SDS011;10722;51.910;8.352;2023-07-31T02:25:13;8.93;;;3.30;;
21128;SDS011;10722;51.910;8.352;2023-07-31T02:27:58;11.00;;;3.55;;
21128;SDS011;10722;51.910;8.352;2023-07-31T02:30:44;12.30;;;3.47;;
21128;SDS011;10722;51.910;8.352;2023-07-31T02:33:29;9.38;;;3.42;;
21128;SDS011;10722;51.910;8.352;2023-07-31T02:36:14;9.65;;;4.00;;
21128;SDS011;10722;51.910;8.352;2023-07-31T02:38:59;14.32;;;4.57;;
21128;SDS011;10722;51.910;8.352;2023-07-31T02:41:44;11.88;;;4.65;;
21128;SDS011;10722;51.910;8.352;2023-07-31T02:44:29;12.23;;;4.70;;
21128;SDS011;10722;51.910;8.352;2023-07-31T02:47:14;13.60;;;5.63;;
21128;SDS011;10722;51.910;8.352;2023-07-31T02:49:59;16.13;;;7.00;;
21128;SDS011;10722;51.910;8.352;2023-07-31T02:52:44;17.23;;;8.02;;
21128;SDS011;10722;51.910;8.352;2023-07-31T02:55:29;20.38;;;8.93;;
21128;SDS011;10722;51.910;8.352;2023-07-31T02:58:14;22.80;;;10.73;;
21128;SDS011;10722;51.910;8.352;2023-07-31T03:00:59;26.80;;;14.15;;
21128;SDS011;10722;51.910;8.352;2023-07-31T03:03:45;32.70;;;16.83;;
21128;SDS011;10722;51.910;8.352;2023-07-31T03:06:29;35.72;;;18.55;;
21128;SDS011;10722;51.910;8.352;2023-07-31T03:09:14;33.70;;;17.20;;
21128;SDS011;10722;51.910;8.352;2023-07-31T03:11:59;37.60;;;19.58;;
21128;SDS011;10722;51.910;8.352;2023-07-31T03:14:44;31.10;;;17.73;;
21128;SDS011;10722;51.910;8.352;2023-07-31T03:17:29;32.67;;;17.92;;
21128;SDS011;10722;51.910;8.352;2023-07-31T03:20:14;34.58;;;17.63;;
21128;SDS011;10722;51.910;8.352;2023-07-31T03:23:04;35.00;;;17.92;;
21128;SDS011;10722;51.910;8.352;2023-07-31T03:25:55;35.42;;;18.38;;
21128;SDS011;10722;51.910;8.352;2023-07-31T03:28:44;32.17;;;17.02;;
21128;SDS011;10722;51.910;8.352;2023-07-31T03:31:29;31.20;;;15.48;;
21128;SDS011;10722;51.910;8.352;2023-07-31T03:34:14;28.73;;;15.98;;
21128;SDS011;10722;51.910;8.352;2023-07-31T03:36:59;31.60;;;16.30;;
21128;SDS011;10722;51.910;8.352;2023-07-31T03:39:44;33.95;;;16.48;;
21128;SDS011;10722;51.910;8.352;2023-07-31T03:42:29;34.78;;;16.13;;
21128;SDS011;10722;51.910;8.352;2023-07-31T03:45:14;34.38;;;16.55;;
21128;SDS011;10722;51.910;8.352;2023-07-31T03:47:59;28.95;;;14.27;;
21128;SDS011;10722;51.910;8.352;2023-07-31T03:50:44;29.42;;;15.18;;
21128;SDS011;10722;51.910;8.352;2023-07-31T03:53:29;33.58;;;15.30;;
21128;SDS011;10722;51.910;8.352;2023-07-31T03:56:14;28.23;;;15.10;;
21128;SDS011;10722;51.910;8.352;2023-07-31T03:58:59;33.00;;;15.40;;
21128;SDS011;10722;51.910;8.352;2023-07-31T04:01:44;32.13;;;14.35;;
21128;SDS011;10722;51.910;8.352;2023-07-31T04:04:29;31.27;;;14.85;;
21128;SDS011;10722;51.910;8.352;2023-07-31T04:07:14;29.55;;;14.20;;
21128;SDS011;10722;51.910;8.352;2023-07-31T04:09:59;36.13;;;15.10;;
21128;SDS011;10722;51.910;8.352;2023-07-31T04:12:44;29.42;;;12.80;;
21128;SDS011;10722;51.910;8.352;2023-07-31T04:15:29;34.67;;;13.57;;
21128;SDS011;10722;51.910;8.352;2023-07-31T04:18:14;27.15;;;13.45;;
21128;SDS011;10722;51.910;8.352;2023-07-31T04:20:59;32.30;;;13.73;;
21128;SDS011;10722;51.910;8.352;2023-07-31T04:23:44;32.60;;;13.10;;
21128;SDS011;10722;51.910;8.352;2023-07-31T04:26:29;31.83;;;13.82;;
21128;SDS011;10722;51.910;8.352;2023-07-31T04:29:14;28.30;;;12.25;;
21128;SDS011;10722;51.910;8.352;2023-07-31T04:31:59;28.73;;;13.38;;
21128;SDS011;10722;51.910;8.352;2023-07-31T04:34:44;31.77;;;12.90;;
21128;SDS011;10722;51.910;8.352;2023-07-31T04:37:29;33.83;;;13.48;;
21128;SDS011;10722;51.910;8.352;2023-07-31T04:40:15;32.17;;;13.05;;
21128;SDS011;10722;51.910;8.352;2023-07-31T04:43:00;29.92;;;12.02;;
21128;SDS011;10722;51.910;8.352;2023-07-31T04:45:46;31.70;;;11.77;;
21128;SDS011;10722;51.910;8.352;2023-07-31T04:48:31;27.58;;;10.65;;
21128;SDS011;10722;51.910;8.352;2023-07-31T04:51:16;27.90;;;10.93;;
21128;SDS011;10722;51.910;8.352;2023-07-31T04:54:01;28.58;;;11.60;;
21128;SDS011;10722;51.910;8.352;2023-07-31T04:56:46;21.58;;;9.30;;
21128;SDS011;10722;51.910;8.352;2023-07-31T04:59:31;25.20;;;10.13;;
21128;SDS011;10722;51.910;8.352;2023-07-31T05:02:17;23.63;;;9.43;;
21128;SDS011;10722;51.910;8.352;2023-07-31T05:05:02;28.38;;;10.00;;
21128;SDS011;10722;51.910;8.352;2023-07-31T05:07:47;26.70;;;10.05;;
21128;SDS011;10722;51.910;8.352;2023-07-31T05:10:32;27.75;;;9.50;;
21128;SDS011;10722;51.910;8.352;2023-07-31T05:13:17;21.45;;;9.18;;
21128;SDS011;10722;51.910;8.352;2023-07-31T05:16:02;27.00;;;9.40;;
21128;SDS011;10722;51.910;8.352;2023-07-31T05:18:47;26.20;;;8.90;;
21128;SDS011;10722;51.910;8.352;2023-07-31T05:21:33;26.67;;;9.00;;
21128;SDS011;10722;51.910;8.352;2023-07-31T05:24:17;26.23;;;8.77;;
21128;SDS011;10722;51.910;8.352;2023-07-31T05:27:02;23.33;;;8.55;;
21128;SDS011;10722;51.910;8.352;2023-07-31T05:29:48;21.83;;;8.07;;
21128;SDS011;10722;51.910;8.352;2023-07-31T05:32:36;23.52;;;7.88;;
21128;SDS011;10722;51.910;8.352;2023-07-31T05:35:21;26.05;;;8.70;;
21128;SDS011;10722;51.910;8.352;2023-07-31T05:38:07;22.85;;;7.95;;
21128;SDS011;10722;51.910;8.352;2023-07-31T05:40:59;24.00;;;8.10;;
21128;SDS011;10722;51.910;8.352;2023-07-31T05:43:45;26.25;;;7.97;;
21128;SDS011;10722;51.910;8.352;2023-07-31T05:46:30;24.30;;;8.52;;
21128;SDS011;10722;51.910;8.352;2023-07-31T05:49:15;25.23;;;8.80;;
21128;SDS011;10722;51.910;8.352;2023-07-31T05:52:00;24.27;;;8.20;;
21128;SDS011;10722;51.910;8.352;2023-07-31T05:54:45;25.85;;;8.55;;
21128;SDS011;10722;51.910;8.352;2023-07-31T05:57:30;21.88;;;8.30;;
21128;SDS011;10722;51.910;8.352;2023-07-31T06:00:15;21.35;;;7.72;;
21128;SDS011;10722;51.910;8.352;2023-07-31T06:03:00;23.50;;;8.13;;
21128;SDS011;10722;51.910;8.352;2023-07-31T06:05:46;22.52;;;8.20;;
21128;SDS011;10722;51.910;8.352;2023-07-31T06:08:31;22.27;;;7.38;;
21128;SDS011;10722;51.910;8.352;2023-07-31T06:11:16;22.88;;;7.70;;
21128;SDS011;10722;51.910;8.352;2023-07-31T06:14:01;20.58;;;7.78;;
21128;SDS011;10722;51.910;8.352;2023-07-31T06:16:46;21.80;;;7.80;;
21128;SDS011;10722;51.910;8.352;2023-07-31T06:19:31;20.48;;;7.53;;
21128;SDS011;10722;51.910;8.352;2023-07-31T06:22:16;22.05;;;7.95;;
21128;SDS011;10722;51.910;8.352;2023-07-31T06:25:01;22.27;;;7.22;;
21128;SDS011;10722;51.910;8.352;2023-07-31T06:27:46;23.08;;;7.38;;
21128;SDS011;10722;51.910;8.352;2023-07-31T06:30:31;25.83;;;8.20;;
21128;SDS011;10722;51.910;8.352;2023-07-31T06:33:17;21.92;;;7.68;;
21128;SDS011;10722;51.910;8.352;2023-07-31T06:36:02;23.45;;;7.95;;
21128;SDS011;10722;51.910;8.352;2023-07-31T06:38:47;21.23;;;7.43;;
21128;SDS011;10722;51.910;8.352;2023-07-31T06:41:32;21.75;;;7.90;;
21128;SDS011;10722;51.910;8.352;2023-07-31T06:44:18;21.58;;;8.25;;
21128;SDS011;10722;51.910;8.352;2023-07-31T06:47:03;21.30;;;7.65;;
21128;SDS011;10722;51.910;8.352;2023-07-31T06:49:49;22.08;;;8.32;;
21128;SDS011;10722;51.910;8.352;2023-07-31T06:52:34;20.20;;;7.80;;
21128;SDS011;10722;51.910;8.352;2023-07-31T06:55:20;22.58;;;8.65;;
21128;SDS011;10722;51.910;8.352;2023-07-31T06:58:06;23.13;;;8.15;;
21128;SDS011;10722;51.910;8.352;2023-07-31T07:00:51;25.58;;;8.93;;
21128;SDS011;10722;51.910;8.352;2023-07-31T07:03:36;25.35;;;9.13;;
21128;SDS011;10722;51.910;8.352;2023-07-31T07:06:22;24.08;;;9.13;;
21128;SDS011;10722;51.910;8.352;2023-07-31T07:09:07;22.60;;;8.25;;
21128;SDS011;10722;51.910;8.352;2023-07-31T07:11:53;22.42;;;8.55;;
21128;SDS011;10722;51.910;8.352;2023-07-31T07:14:38;24.23;;;8.45;;
21128;SDS011;10722;51.910;8.352;2023-07-31T07:17:23;24.23;;;8.82;;
21128;SDS011;10722;51.910;8.352;2023-07-31T07:20:08;21.50;;;8.55;;
21128;SDS011;10722;51.910;8.352;2023-07-31T07:22:54;22.40;;;8.00;;
21128;SDS011;10722;51.910;8.352;2023-07-31T07:25:39;22.67;;;8.02;;
21128;SDS011;10722;51.910;8.352;2023-07-31T07:28:24;19.13;;;8.30;;
21128;SDS011;10722;51.910;8.352;2023-07-31T07:31:10;21.95;;;8.05;;
21128;SDS011;10722;51.910;8.352;2023-07-31T07:33:56;23.52;;;8.50;;
21128;SDS011;10722;51.910;8.352;2023-07-31T07:36:41;20.75;;;8.93;;
21128;SDS011;10722;51.910;8.352;2023-07-31T07:39:26;23.15;;;9.05;;
21128;SDS011;10722;51.910;8.352;2023-07-31T07:42:12;21.65;;;9.00;;
21128;SDS011;10722;51.910;8.352;2023-07-31T07:44:57;24.90;;;9.55;;
21128;SDS011;10722;51.910;8.352;2023-07-31T07:47:43;24.00;;;9.45;;
21128;SDS011;10722;51.910;8.352;2023-07-31T07:50:28;22.80;;;9.95;;
21128;SDS011;10722;51.910;8.352;2023-07-31T07:53:14;24.48;;;10.38;;
21128;SDS011;10722;51.910;8.352;2023-07-31T07:55:59;25.25;;;10.32;;
21128;SDS011;10722;51.910;8.352;2023-07-31T07:58:44;24.23;;;10.45;;
21128;SDS011;10722;51.910;8.352;2023-07-31T08:01:29;23.63;;;10.70;;
21128;SDS011;10722;51.910;8.352;2023-07-31T08:04:14;25.48;;;10.88;;
21128;SDS011;10722;51.910;8.352;2023-07-31T08:07:00;26.48;;;11.23;;
21128;SDS011;10722;51.910;8.352;2023-07-31T08:09:45;25.25;;;11.13;;
21128;SDS011;10722;51.910;8.352;2023-07-31T08:12:30;23.85;;;10.43;;
21128;SDS011;10722;51.910;8.352;2023-07-31T08:15:15;24.10;;;10.60;;
21128;SDS011;10722;51.910;8.352;2023-07-31T08:18:01;23.35;;;10.80;;
21128;SDS011;10722;51.910;8.352;2023-07-31T08:20:46;23.73;;;10.80;;
21128;SDS011;10722;51.910;8.352;2023-07-31T08:23:32;21.92;;;9.98;;
21128;SDS011;10722;51.910;8.352;2023-07-31T08:26:18;24.63;;;10.93;;
21128;SDS011;10722;51.910;8.352;2023-07-31T08:29:03;24.25;;;10.80;;
21128;SDS011;10722;51.910;8.352;2023-07-31T08:31:49;30.02;;;11.32;;
21128;SDS011;10722;51.910;8.352;2023-07-31T08:34:33;27.25;;;12.05;;
21128;SDS011;10722;51.910;8.352;2023-07-31T08:37:18;25.83;;;12.88;;
21128;SDS011;10722;51.910;8.352;2023-07-31T08:40:04;25.67;;;12.13;;
21128;SDS011;10722;51.910;8.352;2023-07-31T08:42:52;21.90;;;12.00;;
21128;SDS011;10722;51.910;8.352;2023-07-31T08:45:39;28.00;;;11.95;;
21128;SDS011;10722;51.910;8.352;2023-07-31T08:48:26;24.17;;;11.43;;
21128;SDS011;10722;51.910;8.352;2023-07-31T08:51:14;23.35;;;10.07;;
21128;SDS011;10722;51.910;8.352;2023-07-31T08:54:00;23.05;;;10.70;;
21128;SDS011;10722;51.910;8.352;2023-07-31T08:56:46;21.67;;;10.95;;
21128;SDS011;10722;51.910;8.352;2023-07-31T08:59:31;27.50;;;10.43;;
21128;SDS011;10722;51.910;8.352;2023-07-31T09:02:19;20.80;;;9.88;;
21128;SDS011;10722;51.910;8.352;2023-07-31T09:05:06;23.15;;;9.80;;
21128;SDS011;10722;51.910;8.352;2023-07-31T09:07:52;21.55;;;10.18;;
21128;SDS011;10722;51.910;8.352;2023-07-31T09:10:43;19.73;;;8.75;;
21128;SDS011;10722;51.910;8.352;2023-07-31T09:13:29;21.85;;;8.85;;
21128;SDS011;10722;51.910;8.352;2023-07-31T09:16:15;19.42;;;8.02;;
21128;SDS011;10722;51.910;8.352;2023-07-31T09:19:01;18.52;;;8.00;;
21128;SDS011;10722;51.910;8.352;2023-07-31T09:21:49;16.13;;;6.95;;
21128;SDS011;10722;51.910;8.352;2023-07-31T09:24:35;17.25;;;7.35;;
21128;SDS011;10722;51.910;8.352;2023-07-31T09:27:20;14.25;;;6.43;;
21128;SDS011;10722;51.910;8.352;2023-07-31T09:30:05;18.48;;;6.40;;
21128;SDS011;10722;51.910;8.352;2023-07-31T09:33:00;14.85;;;6.88;;
21128;SDS011;10722;51.910;8.352;2023-07-31T09:35:46;16.48;;;7.03;;
21128;SDS011;10722;51.910;8.352;2023-07-31T09:38:32;15.52;;;6.72;;
21128;SDS011;10722;51.910;8.352;2023-07-31T09:41:17;17.98;;;5.68;;
21128;SDS011;10722;51.910;8.352;2023-07-31T09:44:02;14.38;;;5.68;;
21128;SDS011;10722;51.910;8.352;2023-07-31T09:46:48;13.98;;;5.35;;
21128;SDS011;10722;51.910;8.352;2023-07-31T09:49:34;14.77;;;5.55;;
21128;SDS011;10722;51.910;8.352;2023-07-31T09:52:19;15.50;;;6.47;;
21128;SDS011;10722;51.910;8.352;2023-07-31T09:55:04;19.15;;;6.63;;
21128;SDS011;10722;51.910;8.352;2023-07-31T09:57:50;16.48;;;6.53;;
21128;SDS011;10722;51.910;8.352;2023-07-31T10:00:36;16.88;;;6.90;;
21128;SDS011;10722;51.910;8.352;2023-07-31T10:03:22;15.90;;;6.20;;
21128;SDS011;10722;51.910;8.352;2023-07-31T10:06:07;16.38;;;6.97;;
21128;SDS011;10722;51.910;8.352;2023-07-31T10:08:54;16.90;;;6.43;;
21128;SDS011;10722;51.910;8.352;2023-07-31T10:11:45;14.27;;;6.15;;
21128;SDS011;10722;51.910;8.352;2023-07-31T10:14:36;15.02;;;6.22;;
21128;SDS011;10722;51.910;8.352;2023-07-31T10:17:24;12.95;;;4.40;;
21128;SDS011;10722;51.910;8.352;2023-07-31T10:20:09;13.15;;;4.80;;
21128;SDS011;10722;51.910;8.352;2023-07-31T10:22:55;9.80;;;3.40;;
21128;SDS011;10722;51.910;8.352;2023-07-31T10:25:41;12.18;;;4.43;;
21128;SDS011;10722;51.910;8.352;2023-07-31T10:28:28;12.25;;;4.75;;
21128;SDS011;10722;51.910;8.352;2023-07-31T10:31:14;11.35;;;4.07;;
21128;SDS011;10722;51.910;8.352;2023-07-31T10:34:00;9.25;;;3.55;;
21128;SDS011;10722;51.910;8.352;2023-07-31T10:36:46;8.23;;;3.00;;
21128;SDS011;10722;51.910;8.352;2023-07-31T10:39:35;10.05;;;3.20;;
21128;SDS011;10722;51.910;8.352;2023-07-31T10:42:27;10.05;;;3.20;;
21128;SDS011;10722;51.910;8.352;2023-07-31T10:45:13;8.45;;;3.10;;
21128;SDS011;10722;51.910;8.352;2023-07-31T10:47:59;9.10;;;3.30;;
21128;SDS011;10722;51.910;8.352;2023-07-31T10:50:49;8.05;;;2.92;;
21128;SDS011;10722;51.910;8.352;2023-07-31T10:53:40;8.98;;;3.05;;
21128;SDS011;10722;51.910;8.352;2023-07-31T10:56:25;12.25;;;3.35;;
21128;SDS011;10722;51.910;8.352;2023-07-31T10:59:11;8.63;;;3.30;;
21128;SDS011;10722;51.910;8.352;2023-07-31T11:01:56;9.45;;;3.25;;
21128;SDS011;10722;51.910;8.352;2023-07-31T11:04:41;8.20;;;3.15;;
21128;SDS011;10722;51.910;8.352;2023-07-31T11:07:26;6.63;;;2.63;;
21128;SDS011;10722;51.910;8.352;2023-07-31T11:10:31;9.05;;;3.13;;
21128;SDS011;10722;51.910;8.352;2023-07-31T11:13:16;9.18;;;3.17;;
21128;SDS011;10722;51.910;8.352;2023-07-31T11:16:01;10.50;;;3.35;;
21128;SDS011;10722;51.910;8.352;2023-07-31T11:18:48;6.65;;;2.92;;
21128;SDS011;10722;51.910;8.352;2023-07-31T11:21:33;9.10;;;3.28;;
21128;SDS011;10722;51.910;8.352;2023-07-31T11:24:19;12.07;;;3.80;;
21128;SDS011;10722;51.910;8.352;2023-07-31T11:27:07;7.68;;;3.20;;
21128;SDS011;10722;51.910;8.352;2023-07-31T11:29:52;9.80;;;3.75;;
21128;SDS011;10722;51.910;8.352;2023-07-31T11:32:37;9.32;;;3.58;;
21128;SDS011;10722;51.910;8.352;2023-07-31T11:35:23;12.43;;;3.83;;
21128;SDS011;10722;51.910;8.352;2023-07-31T11:38:08;10.13;;;3.70;;
21128;SDS011;10722;51.910;8.352;2023-07-31T11:40:54;11.10;;;3.70;;
21128;SDS011;10722;51.910;8.352;2023-07-31T11:43:41;12.40;;;3.50;;
21128;SDS011;10722;51.910;8.352;2023-07-31T11:46:26;8.07;;;3.22;;
21128;SDS011;10722;51.910;8.352;2023-07-31T11:49:13;8.68;;;3.50;;
21128;SDS011;10722;51.910;8.352;2023-07-31T11:51:58;9.88;;;3.28;;
21128;SDS011;10722;51.910;8.352;2023-07-31T11:54:43;9.15;;;3.30;;
21128;SDS011;10722;51.910;8.352;2023-07-31T11:57:29;9.75;;;3.50;;
21128;SDS011;10722;51.910;8.352;2023-07-31T12:00:14;8.63;;;3.13;;
21128;SDS011;10722;51.910;8.352;2023-07-31T12:03:00;10.73;;;3.35;;
21128;SDS011;10722;51.910;8.352;2023-07-31T12:05:47;8.82;;;2.83;;
21128;SDS011;10722;51.910;8.352;2023-07-31T12:08:32;7.78;;;2.80;;
21128;SDS011;10722;51.910;8.352;2023-07-31T12:11:17;7.03;;;2.83;;
21128;SDS011;10722;51.910;8.352;2023-07-31T12:14:04;8.93;;;2.60;;
21128;SDS011;10722;51.910;8.352;2023-07-31T12:16:53;6.47;;;2.58;;
21128;SDS011;10722;51.910;8.352;2023-07-31T12:19:39;6.72;;;2.60;;
21128;SDS011;10722;51.910;8.352;2023-07-31T12:22:25;6.90;;;2.50;;
21128;SDS011;10722;51.910;8.352;2023-07-31T12:25:15;6.28;;;2.55;;
21128;SDS011;10722;51.910;8.352;2023-07-31T12:28:04;9.05;;;3.00;;
21128;SDS011;10722;51.910;8.352;2023-07-31T12:30:49;6.60;;;2.70;;
21128;SDS011;10722;51.910;8.352;2023-07-31T12:33:35;6.65;;;2.72;;
21128;SDS011;10722;51.910;8.352;2023-07-31T12:36:22;6.30;;;2.92;;
21128;SDS011;10722;51.910;8.352;2023-07-31T12:39:09;8.00;;;3.25;;
21128;SDS011;10722;51.910;8.352;2023-07-31T12:41:54;8.98;;;3.40;;
21128;SDS011;10722;51.910;8.352;2023-07-31T12:44:39;10.27;;;3.60;;
21128;SDS011;10722;51.910;8.352;2023-07-31T12:47:24;10.85;;;4.22;;
21128;SDS011;10722;51.910;8.352;2023-07-31T12:50:09;11.77;;;4.50;;
21128;SDS011;10722;51.910;8.352;2023-07-31T12:52:54;12.27;;;4.70;;
21128;SDS011;10722;51.910;8.352;2023-07-31T12:55:39;12.60;;;5.13;;
21128;SDS011;10722;51.910;8.352;2023-07-31T12:58:25;13.55;;;5.43;;
21128;SDS011;10722;51.910;8.352;2023-07-31T13:01:10;14.68;;;5.45;;
21128;SDS011;10722;51.910;8.352;2023-07-31T13:03:56;12.90;;;5.22;;
21128;SDS011;10722;51.910;8.352;2023-07-31T13:06:41;12.30;;;5.00;;
21128;SDS011;10722;51.910;8.352;2023-07-31T13:09:27;12.23;;;4.70;;
21128;SDS011;10722;51.910;8.352;2023-07-31T13:12:12;12.20;;;4.68;;
21128;SDS011;10722;51.910;8.352;2023-07-31T13:14:57;11.65;;;4.28;;
21128;SDS011;10722;51.910;8.352;2023-07-31T13:17:42;12.20;;;3.95;;
21128;SDS011;10722;51.910;8.352;2023-07-31T13:20:28;10.88;;;4.30;;
21128;SDS011;10722;51.910;8.352;2023-07-31T13:23:13;11.40;;;4.18;;
21128;SDS011;10722;51.910;8.352;2023-07-31T13:25:57;11.30;;;4.20;;
21128;SDS011;10722;51.910;8.352;2023-07-31T13:28:42;10.43;;;4.10;;
21128;SDS011;10722;51.910;8.352;2023-07-31T13:31:28;11.32;;;3.50;;
21128;SDS011;10722;51.910;8.352;2023-07-31T13:34:13;10.35;;;3.60;;
21128;SDS011;10722;51.910;8.352;2023-07-31T13:36:58;10.02;;;3.58;;
21128;SDS011;10722;51.910;8.352;2023-07-31T13:39:43;9.73;;;3.70;;
21128;SDS011;10722;51.910;8.352;2023-07-31T13:42:28;9.40;;;3.45;;
21128;SDS011;10722;51.910;8.352;2023-07-31T13:45:13;10.30;;;3.90;;
21128;SDS011;10722;51.910;8.352;2023-07-31T13:47:59;9.23;;;3.47;;
21128;SDS011;10722;51.910;8.352;2023-07-31T13:50:44;9.02;;;3.40;;
21128;SDS011;10722;51.910;8.352;2023-07-31T13:53:29;10.23;;;3.95;;
21128;SDS011;10722;51.910;8.352;2023-07-31T13:56:14;10.05;;;3.90;;
21128;SDS011;10722;51.910;8.352;2023-07-31T13:58:59;10.07;;;3.63;;
21128;SDS011;10722;51.910;8.352;2023-07-31T14:01:44;11.40;;;3.72;;
21128;SDS011;10722;51.910;8.352;2023-07-31T14:04:30;10.40;;;3.80;;
21128;SDS011;10722;51.910;8.352;2023-07-31T14:07:15;10.38;;;4.10;;
21128;SDS011;10722;51.910;8.352;2023-07-31T14:10:00;10.02;;;3.90;;
21128;SDS011;10722;51.910;8.352;2023-07-31T14:12:45;8.57;;;3.30;;
21128;SDS011;10722;51.910;8.352;2023-07-31T14:15:31;9.10;;;3.58;;
21128;SDS011;10722;51.910;8.352;2023-07-31T14:18:16;9.00;;;3.42;;
21128;SDS011;10722;51.910;8.352;2023-07-31T14:21:03;9.18;;;3.70;;
21128;SDS011;10722;51.910;8.352;2023-07-31T14:23:48;9.75;;;3.60;;
21128;SDS011;10722;51.910;8.352;2023-07-31T14:26:33;12.48;;;3.70;;
21128;SDS011;10722;51.910;8.352;2023-07-31T14:29:18;10.13;;;2.95;;
21128;SDS011;10722;51.910;8.352;2023-07-31T14:32:03;10.13;;;3.40;;
21128;SDS011;10722;51.910;8.352;2023-07-31T14:34:49;8.30;;;3.00;;
21128;SDS011;10722;51.910;8.352;2023-07-31T14:37:38;10.23;;;3.40;;
21128;SDS011;10722;51.910;8.352;2023-07-31T14:40:25;8.93;;;3.17;;
21128;SDS011;10722;51.910;8.352;2023-07-31T14:43:11;9.90;;;3.00;;
21128;SDS011;10722;51.910;8.352;2023-07-31T14:45:55;8.65;;;2.80;;
21128;SDS011;10722;51.910;8.352;2023-07-31T14:48:41;10.13;;;3.30;;
21128;SDS011;10722;51.910;8.352;2023-07-31T14:51:26;9.07;;;3.08;;
21128;SDS011;10722;51.910;8.352;2023-07-31T14:54:11;10.77;;;3.30;;
21128;SDS011;10722;51.910;8.352;2023-07-31T14:56:56;10.52;;;3.10;;
21128;SDS011;10722;51.910;8.352;2023-07-31T14:59:41;8.55;;;2.83;;
21128;SDS011;10722;51.910;8.352;2023-07-31T15:02:26;11.15;;;3.10;;
21128;SDS011;10722;51.910;8.352;2023-07-31T15:05:11;8.52;;;2.83;;
21128;SDS011;10722;51.910;8.352;2023-07-31T15:07:57;9.07;;;3.25;;
21128;SDS011;10722;51.910;8.352;2023-07-31T15:10:42;9.45;;;2.83;;
21128;SDS011;10722;51.910;8.352;2023-07-31T15:13:28;7.88;;;2.78;;
21128;SDS011;10722;51.910;8.352;2023-07-31T15:16:13;7.35;;;2.88;;
21128;SDS011;10722;51.910;8.352;2023-07-31T15:18:59;7.50;;;3.00;;
21128;SDS011;10722;51.910;8.352;2023-07-31T15:21:44;7.13;;;3.00;;
21128;SDS011;10722;51.910;8.352;2023-07-31T15:24:29;8.93;;;3.08;;
21128;SDS011;10722;51.910;8.352;2023-07-31T15:27:15;7.97;;;3.13;;
21128;SDS011;10722;51.910;8.352;2023-07-31T15:30:00;8.48;;;2.90;;
21128;SDS011;10722;51.910;8.352;2023-07-31T15:32:45;13.57;;;3.22;;
21128;SDS011;10722;51.910;8.352;2023-07-31T15:35:30;9.98;;;3.22;;
21128;SDS011;10722;51.910;8.352;2023-07-31T15:38:15;13.45;;;3.30;;
21128;SDS011;10722;51.910;8.352;2023-07-31T15:41:00;11.25;;;3.22;;
21128;SDS011;10722;51.910;8.352;2023-07-31T15:43:45;9.85;;;3.00;;
21128;SDS011;10722;51.910;8.352;2023-07-31T15:46:32;9.18;;;3.28;;
21128;SDS011;10722;51.910;8.352;2023-07-31T15:49:19;9.80;;;3.20;;
21128;SDS011;10722;51.910;8.352;2023-07-31T15:52:04;8.45;;;3.45;;
21128;SDS011;10722;51.910;8.352;2023-07-31T15:54:50;8.98;;;3.47;;
21128;SDS011;10722;51.910;8.352;2023-07-31T15:57:35;10.18;;;3.70;;
21128;SDS011;10722;51.910;8.352;2023-07-31T16:00:21;13.13;;;3.60;;
21128;SDS011;10722;51.910;8.352;2023-07-31T16:03:06;11.55;;;3.80;;
21128;SDS011;10722;51.910;8.352;2023-07-31T16:05:51;9.75;;;3.35;;
21128;SDS011;10722;51.910;8.352;2023-07-31T16:08:36;13.05;;;3.85;;
21128;SDS011;10722;51.910;8.352;2023-07-31T16:11:21;9.68;;;3.60;;
21128;SDS011;10722;51.910;8.352;2023-07-31T16:14:07;10.57;;;3.65;;
21128;SDS011;10722;51.910;8.352;2023-07-31T16:16:52;11.73;;;3.90;;
21128;SDS011;10722;51.910;8.352;2023-07-31T16:19:37;10.60;;;3.83;;
21128;SDS011;10722;51.910;8.352;2023-07-31T16:22:22;10.30;;;3.90;;
21128;SDS011;10722;51.910;8.352;2023-07-31T16:25:09;11.70;;;3.80;;
21128;SDS011;10722;51.910;8.352;2023-07-31T16:27:55;11.60;;;4.32;;
21128;SDS011;10722;51.910;8.352;2023-07-31T16:30:40;11.10;;;3.97;;
21128;SDS011;10722;51.910;8.352;2023-07-31T16:33:25;11.02;;;4.13;;